Airfield :
LOGIN :

Register | Disclaimer

   EN    FR    IT 

 










Legend :    VFR   Marginal VFR   IFR   Intensive IFR   Very Intensive IFR
Visi :
Ceiling :
>= 8 km
>= 3000ft
5 to 8 km
1000 to 3000 ft
1500m to 5 km
500 to 1000 ft
800 to 1500m
200 to 500 ft
< 800m
< 200 ft
Symbols :   Thunderstorms  Fog  Heavy snow  Heavy precipitations  Wind > 20 kt
SIGMETs :     Misc.  Thunderstorms  Icing  Turbulence  Mountain Waves  Volcanic Ashes






- Airport Elevation : 119 ft
- IATA code : WAT


EIWF - Waterford

CURRENT METAR :
  • 261530Z 27005KT 220V300 CAVOK 07/04 Q1003

EXPIRED METARs :
  • 261500Z 28007KT 250V310 9999 FEW018 07/04 Q1004
  • 261430Z 28007KT 230V310 9999 FEW020 08/05 Q1004 R21/0/////
  • 261400Z 30007KT 280V340 9999 FEW020 07/05 Q1004 R21/1/////
  • 261330Z 31008KT 280V340 9999 SCT017 06/05 Q1004 R21/1/////
  • 261300Z 29006KT 250V320 9999 SCT017 08/06 Q1004 R21/1/////
  • 261230Z 28006KT 250V310 9999 SCT020 08/06 Q1004 R21/1/////

TAF TAF EIWF
Valid from the 26 at 15:00 until the 27 at 00:00 UTC


261400Z 2615/2624 25012KT 9999 FEW012 SCT025
PROB40
TEMPO 2615/2616 -SHRA SCT010 SCT018CB
BECMG 2615/2617 22012KT
TEMPO 2618/2624 21020G30KT 4900 SHRA BKN010
PROB30
TEMPO 2620/2621 21022G40KT 2000 SHRAGS BKN008
BECMG 2622/2624 24015G25KT
ATIS : +353 51 877 000



MET'MAP, your aeronautical weather chart ! - Copyright ORBIFLY December 2007 - Disclaimer

ORBIFLY MET'MAP TEAM :

Programming & Development : Alexandra Zaïnal
Concept & original design : Baudouin d'Aumeries
Assistance for programming : Marc-Olivier Méhu
Technical & hardware support : Manuel Goepfert

Contact : metmap@orbifly.com




SOURCES & CREDITS :

   NOAA